sensor_id;sensor_type;location;lat;lon;timestamp;P1;durP1;ratioP1;P2;durP2;ratioP2
77449;SDS011;66536;53.150;18.172;2023-07-13T00:01:48;76.90;;;41.10;;
77449;SDS011;66536;53.150;18.172;2023-07-13T00:04:16;76.10;;;39.30;;
77449;SDS011;66536;53.150;18.172;2023-07-13T00:06:45;70.30;;;39.00;;
77449;SDS011;66536;53.150;18.172;2023-07-13T00:09:13;59.10;;;35.50;;
77449;SDS011;66536;53.150;18.172;2023-07-13T00:11:41;69.40;;;36.10;;
77449;SDS011;66536;53.150;18.172;2023-07-13T00:14:09;64.10;;;38.10;;
77449;SDS011;66536;53.150;18.172;2023-07-13T00:16:38;63.70;;;35.80;;
77449;SDS011;66536;53.150;18.172;2023-07-13T00:19:10;63.30;;;35.60;;
77449;SDS011;66536;53.150;18.172;2023-07-13T00:21:39;63.00;;;37.70;;
77449;SDS011;66536;53.150;18.172;2023-07-13T00:24:07;67.20;;;38.70;;
77449;SDS011;66536;53.150;18.172;2023-07-13T00:26:39;75.00;;;40.80;;
77449;SDS011;66536;53.150;18.172;2023-07-13T00:29:06;72.60;;;41.20;;
77449;SDS011;66536;53.150;18.172;2023-07-13T00:31:36;72.40;;;41.40;;
77449;SDS011;66536;53.150;18.172;2023-07-13T00:34:04;79.90;;;43.40;;
77449;SDS011;66536;53.150;18.172;2023-07-13T00:36:31;84.50;;;40.90;;
77449;SDS011;66536;53.150;18.172;2023-07-13T00:38:59;76.90;;;41.70;;
77449;SDS011;66536;53.150;18.172;2023-07-13T00:41:26;71.10;;;40.00;;
77449;SDS011;66536;53.150;18.172;2023-07-13T00:43:52;76.30;;;40.10;;
77449;SDS011;66536;53.150;18.172;2023-07-13T00:46:24;71.40;;;39.90;;
77449;SDS011;66536;53.150;18.172;2023-07-13T00:48:56;78.80;;;40.40;;
77449;SDS011;66536;53.150;18.172;2023-07-13T00:51:29;69.30;;;39.10;;
77449;SDS011;66536;53.150;18.172;2023-07-13T00:54:00;64.20;;;35.30;;
77449;SDS011;66536;53.150;18.172;2023-07-13T00:56:31;64.10;;;36.70;;
77449;SDS011;66536;53.150;18.172;2023-07-13T00:59:00;65.00;;;36.10;;
77449;SDS011;66536;53.150;18.172;2023-07-13T01:01:29;63.40;;;35.90;;
77449;SDS011;66536;53.150;18.172;2023-07-13T01:03:56;58.60;;;35.20;;
77449;SDS011;66536;53.150;18.172;2023-07-13T01:06:27;62.20;;;35.10;;
77449;SDS011;66536;53.150;18.172;2023-07-13T01:08:59;58.70;;;33.40;;
77449;SDS011;66536;53.150;18.172;2023-07-13T01:11:27;62.40;;;35.40;;
77449;SDS011;66536;53.150;18.172;2023-07-13T01:13:54;54.10;;;34.50;;
77449;SDS011;66536;53.150;18.172;2023-07-13T01:16:24;60.70;;;35.30;;
77449;SDS011;66536;53.150;18.172;2023-07-13T01:18:53;59.00;;;33.80;;
77449;SDS011;66536;53.150;18.172;2023-07-13T01:21:27;52.00;;;31.90;;
77449;SDS011;66536;53.150;18.172;2023-07-13T01:23:56;54.40;;;32.50;;
77449;SDS011;66536;53.150;18.172;2023-07-13T01:26:23;57.60;;;31.70;;
77449;SDS011;66536;53.150;18.172;2023-07-13T01:28:49;54.90;;;31.90;;
77449;SDS011;66536;53.150;18.172;2023-07-13T01:31:16;60.20;;;32.60;;
77449;SDS011;66536;53.150;18.172;2023-07-13T01:33:43;54.50;;;31.90;;
77449;SDS011;66536;53.150;18.172;2023-07-13T01:36:10;61.50;;;34.80;;
77449;SDS011;66536;53.150;18.172;2023-07-13T01:38:38;54.50;;;32.30;;
77449;SDS011;66536;53.150;18.172;2023-07-13T01:41:07;55.80;;;32.60;;
77449;SDS011;66536;53.150;18.172;2023-07-13T01:43:34;52.70;;;32.50;;
77449;SDS011;66536;53.150;18.172;2023-07-13T01:46:00;54.60;;;32.00;;
77449;SDS011;66536;53.150;18.172;2023-07-13T01:48:28;54.70;;;31.20;;
77449;SDS011;66536;53.150;18.172;2023-07-13T01:50:55;50.70;;;30.80;;
77449;SDS011;66536;53.150;18.172;2023-07-13T01:53:21;51.30;;;30.00;;
77449;SDS011;66536;53.150;18.172;2023-07-13T01:55:48;50.80;;;30.60;;
77449;SDS011;66536;53.150;18.172;2023-07-13T01:58:15;52.90;;;30.50;;
77449;SDS011;66536;53.150;18.172;2023-07-13T02:00:41;48.60;;;30.20;;
77449;SDS011;66536;53.150;18.172;2023-07-13T02:03:08;50.40;;;29.30;;
77449;SDS011;66536;53.150;18.172;2023-07-13T02:05:35;50.90;;;30.20;;
77449;SDS011;66536;53.150;18.172;2023-07-13T02:08:02;47.40;;;30.00;;
77449;SDS011;66536;53.150;18.172;2023-07-13T02:10:31;50.00;;;30.00;;
77449;SDS011;66536;53.150;18.172;2023-07-13T02:12:58;49.20;;;29.90;;
77449;SDS011;66536;53.150;18.172;2023-07-13T02:15:24;48.60;;;28.90;;
77449;SDS011;66536;53.150;18.172;2023-07-13T02:17:51;46.00;;;28.70;;
77449;SDS011;66536;53.150;18.172;2023-07-13T02:20:19;54.60;;;31.10;;
77449;SDS011;66536;53.150;18.172;2023-07-13T02:22:45;52.10;;;30.40;;
77449;SDS011;66536;53.150;18.172;2023-07-13T02:25:13;48.90;;;29.40;;
77449;SDS011;66536;53.150;18.172;2023-07-13T02:27:40;50.80;;;29.20;;
77449;SDS011;66536;53.150;18.172;2023-07-13T02:30:07;45.70;;;29.40;;
77449;SDS011;66536;53.150;18.172;2023-07-13T02:32:34;48.60;;;27.60;;
77449;SDS011;66536;53.150;18.172;2023-07-13T02:35:04;45.90;;;27.60;;
77449;SDS011;66536;53.150;18.172;2023-07-13T02:37:31;42.80;;;28.00;;
77449;SDS011;66536;53.150;18.172;2023-07-13T02:39:57;45.10;;;28.60;;
77449;SDS011;66536;53.150;18.172;2023-07-13T02:42:24;47.50;;;29.40;;
77449;SDS011;66536;53.150;18.172;2023-07-13T02:44:51;48.40;;;29.70;;
77449;SDS011;66536;53.150;18.172;2023-07-13T02:47:18;45.90;;;28.30;;
77449;SDS011;66536;53.150;18.172;2023-07-13T02:49:45;41.90;;;27.30;;
77449;SDS011;66536;53.150;18.172;2023-07-13T02:52:11;51.90;;;29.70;;
77449;SDS011;66536;53.150;18.172;2023-07-13T02:54:38;52.40;;;29.30;;
77449;SDS011;66536;53.150;18.172;2023-07-13T02:57:05;48.80;;;28.80;;
77449;SDS011;66536;53.150;18.172;2023-07-13T02:59:32;46.80;;;28.30;;
77449;SDS011;66536;53.150;18.172;2023-07-13T03:01:58;45.00;;;27.50;;
77449;SDS011;66536;53.150;18.172;2023-07-13T03:04:28;48.10;;;27.60;;
77449;SDS011;66536;53.150;18.172;2023-07-13T03:06:55;44.00;;;27.70;;
77449;SDS011;66536;53.150;18.172;2023-07-13T03:09:25;47.80;;;28.50;;
77449;SDS011;66536;53.150;18.172;2023-07-13T03:11:54;47.90;;;28.10;;
77449;SDS011;66536;53.150;18.172;2023-07-13T03:14:27;48.70;;;28.70;;
77449;SDS011;66536;53.150;18.172;2023-07-13T03:16:54;50.20;;;28.00;;
77449;SDS011;66536;53.150;18.172;2023-07-13T03:19:22;50.00;;;27.40;;
77449;SDS011;66536;53.150;18.172;2023-07-13T03:21:50;46.30;;;27.00;;
77449;SDS011;66536;53.150;18.172;2023-07-13T03:24:17;46.50;;;26.20;;
77449;SDS011;66536;53.150;18.172;2023-07-13T03:26:44;45.80;;;26.30;;
77449;SDS011;66536;53.150;18.172;2023-07-13T03:29:11;46.40;;;29.70;;
77449;SDS011;66536;53.150;18.172;2023-07-13T03:31:39;50.70;;;29.00;;
77449;SDS011;66536;53.150;18.172;2023-07-13T03:34:06;43.40;;;27.90;;
77449;SDS011;66536;53.150;18.172;2023-07-13T03:36:33;44.80;;;27.60;;
77449;SDS011;66536;53.150;18.172;2023-07-13T03:39:02;49.60;;;28.00;;
77449;SDS011;66536;53.150;18.172;2023-07-13T03:41:35;52.60;;;31.50;;
77449;SDS011;66536;53.150;18.172;2023-07-13T03:44:02;43.90;;;27.50;;
77449;SDS011;66536;53.150;18.172;2023-07-13T03:46:29;40.50;;;26.50;;
77449;SDS011;66536;53.150;18.172;2023-07-13T03:48:56;44.40;;;28.30;;
77449;SDS011;66536;53.150;18.172;2023-07-13T03:51:23;42.90;;;26.40;;
77449;SDS011;66536;53.150;18.172;2023-07-13T03:53:50;45.50;;;26.30;;
77449;SDS011;66536;53.150;18.172;2023-07-13T03:56:19;40.40;;;25.60;;
77449;SDS011;66536;53.150;18.172;2023-07-13T03:58:47;41.10;;;25.50;;
77449;SDS011;66536;53.150;18.172;2023-07-13T04:01:18;40.20;;;24.70;;
77449;SDS011;66536;53.150;18.172;2023-07-13T04:03:49;45.30;;;25.70;;
77449;SDS011;66536;53.150;18.172;2023-07-13T04:06:18;40.40;;;25.40;;
77449;SDS011;66536;53.150;18.172;2023-07-13T04:08:48;42.00;;;26.30;;
77449;SDS011;66536;53.150;18.172;2023-07-13T04:11:17;41.30;;;26.60;;
77449;SDS011;66536;53.150;18.172;2023-07-13T04:13:45;42.30;;;26.60;;
77449;SDS011;66536;53.150;18.172;2023-07-13T04:16:15;38.40;;;25.50;;
77449;SDS011;66536;53.150;18.172;2023-07-13T04:18:43;41.60;;;25.40;;
77449;SDS011;66536;53.150;18.172;2023-07-13T04:21:13;35.10;;;24.40;;
77449;SDS011;66536;53.150;18.172;2023-07-13T04:23:41;40.50;;;24.70;;
77449;SDS011;66536;53.150;18.172;2023-07-13T04:26:11;38.90;;;25.50;;
77449;SDS011;66536;53.150;18.172;2023-07-13T04:28:58;45.70;;;26.90;;
77449;SDS011;66536;53.150;18.172;2023-07-13T04:31:24;39.40;;;25.40;;
77449;SDS011;66536;53.150;18.172;2023-07-13T04:33:51;35.50;;;23.30;;
77449;SDS011;66536;53.150;18.172;2023-07-13T04:36:19;34.40;;;23.30;;
77449;SDS011;66536;53.150;18.172;2023-07-13T04:38:48;30.70;;;22.00;;
77449;SDS011;66536;53.150;18.172;2023-07-13T04:41:15;28.80;;;20.80;;
77449;SDS011;66536;53.150;18.172;2023-07-13T04:43:42;33.40;;;21.00;;
77449;SDS011;66536;53.150;18.172;2023-07-13T04:46:11;26.20;;;19.80;;
77449;SDS011;66536;53.150;18.172;2023-07-13T04:48:39;25.20;;;19.20;;
77449;SDS011;66536;53.150;18.172;2023-07-13T04:51:07;27.50;;;18.60;;
77449;SDS011;66536;53.150;18.172;2023-07-13T04:53:34;23.60;;;18.10;;
77449;SDS011;66536;53.150;18.172;2023-07-13T04:56:01;29.60;;;19.60;;
77449;SDS011;66536;53.150;18.172;2023-07-13T04:58:34;29.30;;;18.30;;
77449;SDS011;66536;53.150;18.172;2023-07-13T05:01:02;20.10;;;15.20;;
77449;SDS011;66536;53.150;18.172;2023-07-13T05:03:31;19.30;;;14.60;;
77449;SDS011;66536;53.150;18.172;2023-07-13T05:06:04;25.00;;;15.20;;
77449;SDS011;66536;53.150;18.172;2023-07-13T05:08:35;21.20;;;14.30;;
77449;SDS011;66536;53.150;18.172;2023-07-13T05:11:04;19.90;;;13.70;;
77449;SDS011;66536;53.150;18.172;2023-07-13T05:13:33;16.20;;;11.40;;
77449;SDS011;66536;53.150;18.172;2023-07-13T05:16:03;14.20;;;11.00;;
77449;SDS011;66536;53.150;18.172;2023-07-13T05:18:36;15.60;;;10.40;;
77449;SDS011;66536;53.150;18.172;2023-07-13T05:21:07;14.30;;;9.50;;
77449;SDS011;66536;53.150;18.172;2023-07-13T05:23:43;18.30;;;9.80;;
77449;SDS011;66536;53.150;18.172;2023-07-13T05:26:16;14.20;;;9.60;;
77449;SDS011;66536;53.150;18.172;2023-07-13T05:28:43;15.80;;;10.60;;
77449;SDS011;66536;53.150;18.172;2023-07-13T05:31:10;16.00;;;9.70;;
77449;SDS011;66536;53.150;18.172;2023-07-13T05:33:41;14.90;;;8.10;;
77449;SDS011;66536;53.150;18.172;2023-07-13T05:36:28;12.70;;;8.60;;
77449;SDS011;66536;53.150;18.172;2023-07-13T05:38:57;11.40;;;7.70;;
77449;SDS011;66536;53.150;18.172;2023-07-13T05:41:24;12.90;;;7.60;;
77449;SDS011;66536;53.150;18.172;2023-07-13T05:43:55;11.70;;;8.30;;
77449;SDS011;66536;53.150;18.172;2023-07-13T05:46:42;12.40;;;7.80;;
77449;SDS011;66536;53.150;18.172;2023-07-13T05:49:39;13.00;;;7.60;;
77449;SDS011;66536;53.150;18.172;2023-07-13T05:52:17;9.50;;;7.70;;
77449;SDS011;66536;53.150;18.172;2023-07-13T05:54:47;13.20;;;6.70;;
77449;SDS011;66536;53.150;18.172;2023-07-13T05:57:22;12.30;;;6.70;;
77449;SDS011;66536;53.150;18.172;2023-07-13T05:59:53;10.70;;;7.50;;
77449;SDS011;66536;53.150;18.172;2023-07-13T06:02:22;12.00;;;7.80;;
77449;SDS011;66536;53.150;18.172;2023-07-13T06:05:07;12.60;;;6.80;;
77449;SDS011;66536;53.150;18.172;2023-07-13T06:07:37;14.80;;;7.70;;
77449;SDS011;66536;53.150;18.172;2023-07-13T06:10:11;13.20;;;8.00;;
77449;SDS011;66536;53.150;18.172;2023-07-13T06:12:50;12.70;;;7.20;;
77449;SDS011;66536;53.150;18.172;2023-07-13T06:15:49;11.40;;;6.50;;
77449;SDS011;66536;53.150;18.172;2023-07-13T06:18:27;8.90;;;6.00;;
77449;SDS011;66536;53.150;18.172;2023-07-13T06:21:14;9.30;;;5.50;;
77449;SDS011;66536;53.150;18.172;2023-07-13T06:23:46;7.50;;;4.50;;
77449;SDS011;66536;53.150;18.172;2023-07-13T06:27:00;8.70;;;4.50;;
77449;SDS011;66536;53.150;18.172;2023-07-13T06:29:32;8.30;;;4.60;;
77449;SDS011;66536;53.150;18.172;2023-07-13T06:32:05;9.10;;;4.50;;
77449;SDS011;66536;53.150;18.172;2023-07-13T06:34:37;8.30;;;4.10;;
77449;SDS011;66536;53.150;18.172;2023-07-13T06:37:15;6.40;;;4.10;;
77449;SDS011;66536;53.150;18.172;2023-07-13T06:39:42;10.40;;;4.10;;
77449;SDS011;66536;53.150;18.172;2023-07-13T06:42:09;7.90;;;3.90;;
77449;SDS011;66536;53.150;18.172;2023-07-13T06:44:48;7.90;;;4.30;;
77449;SDS011;66536;53.150;18.172;2023-07-13T06:47:17;7.10;;;3.40;;
77449;SDS011;66536;53.150;18.172;2023-07-13T06:49:51;9.10;;;3.40;;
77449;SDS011;66536;53.150;18.172;2023-07-13T06:52:25;8.50;;;3.10;;
77449;SDS011;66536;53.150;18.172;2023-07-13T06:54:56;8.80;;;4.10;;
77449;SDS011;66536;53.150;18.172;2023-07-13T06:57:25;12.00;;;4.00;;
77449;SDS011;66536;53.150;18.172;2023-07-13T06:59:52;7.80;;;4.20;;
77449;SDS011;66536;53.150;18.172;2023-07-13T07:02:19;7.10;;;4.10;;
77449;SDS011;66536;53.150;18.172;2023-07-13T07:04:46;8.70;;;3.70;;
77449;SDS011;66536;53.150;18.172;2023-07-13T07:07:15;6.70;;;3.40;;
77449;SDS011;66536;53.150;18.172;2023-07-13T07:09:43;9.30;;;3.30;;
77449;SDS011;66536;53.150;18.172;2023-07-13T07:12:13;7.70;;;2.90;;
77449;SDS011;66536;53.150;18.172;2023-07-13T07:14:40;8.60;;;3.30;;
77449;SDS011;66536;53.150;18.172;2023-07-13T07:17:07;8.10;;;2.90;;
77449;SDS011;66536;53.150;18.172;2023-07-13T07:19:34;11.50;;;3.70;;
77449;SDS011;66536;53.150;18.172;2023-07-13T07:22:01;7.60;;;3.80;;
77449;SDS011;66536;53.150;18.172;2023-07-13T07:24:30;11.40;;;4.10;;
77449;SDS011;66536;53.150;18.172;2023-07-13T07:26:56;7.10;;;3.80;;
77449;SDS011;66536;53.150;18.172;2023-07-13T07:29:25;8.80;;;3.50;;
77449;SDS011;66536;53.150;18.172;2023-07-13T07:31:53;9.20;;;3.60;;
77449;SDS011;66536;53.150;18.172;2023-07-13T07:34:20;9.60;;;3.10;;
77449;SDS011;66536;53.150;18.172;2023-07-13T07:36:48;8.50;;;3.90;;
77449;SDS011;66536;53.150;18.172;2023-07-13T07:39:14;7.30;;;4.00;;
77449;SDS011;66536;53.150;18.172;2023-07-13T07:41:42;10.60;;;3.60;;
77449;SDS011;66536;53.150;18.172;2023-07-13T07:44:09;8.20;;;3.50;;
77449;SDS011;66536;53.150;18.172;2023-07-13T07:46:38;7.50;;;3.40;;
77449;SDS011;66536;53.150;18.172;2023-07-13T07:49:07;10.00;;;3.50;;
77449;SDS011;66536;53.150;18.172;2023-07-13T07:51:34;13.10;;;3.50;;
77449;SDS011;66536;53.150;18.172;2023-07-13T07:54:01;7.20;;;3.30;;
77449;SDS011;66536;53.150;18.172;2023-07-13T07:56:28;9.80;;;3.20;;
77449;SDS011;66536;53.150;18.172;2023-07-13T07:58:55;10.40;;;3.10;;
77449;SDS011;66536;53.150;18.172;2023-07-13T08:01:24;6.60;;;3.20;;
77449;SDS011;66536;53.150;18.172;2023-07-13T08:03:51;8.80;;;3.30;;
77449;SDS011;66536;53.150;18.172;2023-07-13T08:06:19;6.40;;;3.20;;
77449;SDS011;66536;53.150;18.172;2023-07-13T08:08:46;8.10;;;3.10;;
77449;SDS011;66536;53.150;18.172;2023-07-13T08:11:13;6.90;;;2.70;;
77449;SDS011;66536;53.150;18.172;2023-07-13T08:13:39;6.80;;;2.70;;
77449;SDS011;66536;53.150;18.172;2023-07-13T08:16:06;7.40;;;3.10;;
77449;SDS011;66536;53.150;18.172;2023-07-13T08:18:33;7.20;;;4.10;;
77449;SDS011;66536;53.150;18.172;2023-07-13T08:21:04;10.50;;;4.90;;
77449;SDS011;66536;53.150;18.172;2023-07-13T08:23:33;6.20;;;3.10;;
77449;SDS011;66536;53.150;18.172;2023-07-13T08:26:01;6.30;;;3.00;;
77449;SDS011;66536;53.150;18.172;2023-07-13T08:28:29;7.70;;;3.30;;
77449;SDS011;66536;53.150;18.172;2023-07-13T08:31:00;7.70;;;3.40;;
77449;SDS011;66536;53.150;18.172;2023-07-13T08:33:30;5.70;;;3.20;;
77449;SDS011;66536;53.150;18.172;2023-07-13T08:35:57;6.80;;;2.80;;
77449;SDS011;66536;53.150;18.172;2023-07-13T08:38:23;8.70;;;3.60;;
77449;SDS011;66536;53.150;18.172;2023-07-13T08:40:53;11.40;;;3.10;;
77449;SDS011;66536;53.150;18.172;2023-07-13T08:43:25;7.10;;;3.50;;
77449;SDS011;66536;53.150;18.172;2023-07-13T08:46:05;9.60;;;3.40;;
77449;SDS011;66536;53.150;18.172;2023-07-13T08:48:41;9.20;;;3.40;;
77449;SDS011;66536;53.150;18.172;2023-07-13T08:53:59;8.50;;;4.00;;
77449;SDS011;66536;53.150;18.172;2023-07-13T08:56:29;4.70;;;3.40;;
77449;SDS011;66536;53.150;18.172;2023-07-13T08:59:00;6.60;;;3.50;;
77449;SDS011;66536;53.150;18.172;2023-07-13T09:01:46;5.70;;;2.90;;
77449;SDS011;66536;53.150;18.172;2023-07-13T09:04:26;5.20;;;3.10;;
77449;SDS011;66536;53.150;18.172;2023-07-13T09:06:59;9.00;;;4.00;;
77449;SDS011;66536;53.150;18.172;2023-07-13T09:12:38;13.40;;;10.10;;
77449;SDS011;66536;53.150;18.172;2023-07-13T09:15:21;8.00;;;6.30;;
77449;SDS011;66536;53.150;18.172;2023-07-13T09:17:52;7.70;;;5.20;;
77449;SDS011;66536;53.150;18.172;2023-07-13T09:20:25;10.50;;;3.70;;
77449;SDS011;66536;53.150;18.172;2023-07-13T09:22:59;24.20;;;3.70;;
77449;SDS011;66536;53.150;18.172;2023-07-13T09:25:31;5.40;;;3.00;;
77449;SDS011;66536;53.150;18.172;2023-07-13T09:28:04;5.40;;;2.40;;
77449;SDS011;66536;53.150;18.172;2023-07-13T09:30:42;7.90;;;2.80;;
77449;SDS011;66536;53.150;18.172;2023-07-13T09:33:18;6.60;;;2.80;;
77449;SDS011;66536;53.150;18.172;2023-07-13T09:35:45;14.60;;;3.80;;
77449;SDS011;66536;53.150;18.172;2023-07-13T09:38:15;7.50;;;3.00;;
77449;SDS011;66536;53.150;18.172;2023-07-13T09:43:35;8.20;;;2.40;;
77449;SDS011;66536;53.150;18.172;2023-07-13T09:46:07;6.10;;;2.60;;
77449;SDS011;66536;53.150;18.172;2023-07-13T09:48:48;4.30;;;1.90;;
77449;SDS011;66536;53.150;18.172;2023-07-13T09:51:16;8.20;;;2.40;;
77449;SDS011;66536;53.150;18.172;2023-07-13T09:53:42;3.80;;;2.30;;
77449;SDS011;66536;53.150;18.172;2023-07-13T09:56:29;5.60;;;2.20;;
77449;SDS011;66536;53.150;18.172;2023-07-13T09:58:56;4.90;;;2.70;;
77449;SDS011;66536;53.150;18.172;2023-07-13T10:04:12;12.90;;;3.50;;
77449;SDS011;66536;53.150;18.172;2023-07-13T10:06:40;9.50;;;5.50;;
77449;SDS011;66536;53.150;18.172;2023-07-13T10:09:09;4.80;;;2.70;;
77449;SDS011;66536;53.150;18.172;2023-07-13T10:11:40;6.90;;;3.40;;
77449;SDS011;66536;53.150;18.172;2023-07-13T10:14:11;9.30;;;3.10;;
77449;SDS011;66536;53.150;18.172;2023-07-13T10:16:43;7.40;;;3.10;;
77449;SDS011;66536;53.150;18.172;2023-07-13T10:19:15;6.00;;;2.80;;
77449;SDS011;66536;53.150;18.172;2023-07-13T10:21:52;15.40;;;3.70;;
77449;SDS011;66536;53.150;18.172;2023-07-13T10:24:23;13.30;;;3.30;;
77449;SDS011;66536;53.150;18.172;2023-07-13T10:26:53;7.90;;;2.90;;
77449;SDS011;66536;53.150;18.172;2023-07-13T10:29:27;6.70;;;2.70;;
77449;SDS011;66536;53.150;18.172;2023-07-13T10:31:56;5.60;;;2.60;;
77449;SDS011;66536;53.150;18.172;2023-07-13T10:34:24;5.10;;;2.60;;
77449;SDS011;66536;53.150;18.172;2023-07-13T10:36:51;3.40;;;2.70;;
77449;SDS011;66536;53.150;18.172;2023-07-13T10:39:21;10.40;;;2.90;;
77449;SDS011;66536;53.150;18.172;2023-07-13T10:41:54;6.50;;;2.90;;
77449;SDS011;66536;53.150;18.172;2023-07-13T10:44:29;4.50;;;2.80;;
77449;SDS011;66536;53.150;18.172;2023-07-13T10:46:58;8.80;;;2.70;;
77449;SDS011;66536;53.150;18.172;2023-07-13T10:49:27;7.30;;;2.90;;
77449;SDS011;66536;53.150;18.172;2023-07-13T10:52:03;9.50;;;2.70;;
77449;SDS011;66536;53.150;18.172;2023-07-13T10:54:31;8.10;;;2.50;;
77449;SDS011;66536;53.150;18.172;2023-07-13T10:59:46;5.10;;;2.90;;
77449;SDS011;66536;53.150;18.172;2023-07-13T11:02:36;5.30;;;2.40;;
77449;SDS011;66536;53.150;18.172;2023-07-13T11:07:52;5.20;;;2.30;;
77449;SDS011;66536;53.150;18.172;2023-07-13T11:16:13;6.90;;;2.60;;
77449;SDS011;66536;53.150;18.172;2023-07-13T11:22:02;5.70;;;2.40;;
77449;SDS011;66536;53.150;18.172;2023-07-13T11:27:33;4.80;;;2.90;;
77449;SDS011;66536;53.150;18.172;2023-07-13T11:35:44;5.10;;;2.90;;
77449;SDS011;66536;53.150;18.172;2023-07-13T11:41:07;10.80;;;3.50;;
77449;SDS011;66536;53.150;18.172;2023-07-13T11:43:42;6.40;;;2.70;;
77449;SDS011;66536;53.150;18.172;2023-07-13T11:46:13;5.70;;;2.70;;
77449;SDS011;66536;53.150;18.172;2023-07-13T11:48:41;4.10;;;2.40;;
77449;SDS011;66536;53.150;18.172;2023-07-13T11:51:31;4.10;;;2.60;;
77449;SDS011;66536;53.150;18.172;2023-07-13T11:54:29;9.20;;;3.00;;
77449;SDS011;66536;53.150;18.172;2023-07-13T11:57:03;7.00;;;2.90;;
77449;SDS011;66536;53.150;18.172;2023-07-13T11:59:40;4.20;;;2.50;;
77449;SDS011;66536;53.150;18.172;2023-07-13T12:02:13;3.30;;;2.60;;
77449;SDS011;66536;53.150;18.172;2023-07-13T12:04:44;5.30;;;2.60;;
77449;SDS011;66536;53.150;18.172;2023-07-13T12:07:15;6.20;;;3.10;;
77449;SDS011;66536;53.150;18.172;2023-07-13T12:09:43;7.50;;;3.50;;
77449;SDS011;66536;53.150;18.172;2023-07-13T12:12:12;7.30;;;2.90;;
77449;SDS011;66536;53.150;18.172;2023-07-13T12:14:40;5.30;;;2.90;;
77449;SDS011;66536;53.150;18.172;2023-07-13T12:17:11;6.30;;;2.50;;
77449;SDS011;66536;53.150;18.172;2023-07-13T12:19:42;4.20;;;2.50;;
77449;SDS011;66536;53.150;18.172;2023-07-13T12:22:10;4.40;;;2.50;;
77449;SDS011;66536;53.150;18.172;2023-07-13T12:24:40;3.80;;;2.70;;
77449;SDS011;66536;53.150;18.172;2023-07-13T12:27:19;17.60;;;3.20;;
77449;SDS011;66536;53.150;18.172;2023-07-13T12:29:50;5.70;;;2.70;;
77449;SDS011;66536;53.150;18.172;2023-07-13T12:32:20;4.40;;;2.70;;
77449;SDS011;66536;53.150;18.172;2023-07-13T12:34:54;8.50;;;3.10;;
77449;SDS011;66536;53.150;18.172;2023-07-13T12:37:24;5.90;;;2.70;;
77449;SDS011;66536;53.150;18.172;2023-07-13T12:39:51;6.60;;;2.70;;
77449;SDS011;66536;53.150;18.172;2023-07-13T12:42:26;8.40;;;2.80;;
77449;SDS011;66536;53.150;18.172;2023-07-13T12:44:57;8.20;;;3.10;;
77449;SDS011;66536;53.150;18.172;2023-07-13T12:47:41;7.00;;;2.70;;
77449;SDS011;66536;53.150;18.172;2023-07-13T12:50:14;5.00;;;2.60;;
77449;SDS011;66536;53.150;18.172;2023-07-13T12:52:44;7.70;;;2.90;;
77449;SDS011;66536;53.150;18.172;2023-07-13T12:55:17;4.70;;;2.90;;
77449;SDS011;66536;53.150;18.172;2023-07-13T12:57:52;5.90;;;2.90;;
77449;SDS011;66536;53.150;18.172;2023-07-13T13:00:23;6.80;;;2.90;;
77449;SDS011;66536;53.150;18.172;2023-07-13T13:02:54;4.60;;;2.70;;
77449;SDS011;66536;53.150;18.172;2023-07-13T13:05:25;5.10;;;2.50;;
77449;SDS011;66536;53.150;18.172;2023-07-13T13:07:53;5.00;;;2.70;;
77449;SDS011;66536;53.150;18.172;2023-07-13T13:10:20;4.70;;;2.80;;
77449;SDS011;66536;53.150;18.172;2023-07-13T13:12:47;6.10;;;3.00;;
77449;SDS011;66536;53.150;18.172;2023-07-13T13:15:14;6.20;;;3.10;;
77449;SDS011;66536;53.150;18.172;2023-07-13T13:17:42;4.40;;;2.70;;
77449;SDS011;66536;53.150;18.172;2023-07-13T13:20:15;4.90;;;2.50;;
77449;SDS011;66536;53.150;18.172;2023-07-13T13:22:43;7.00;;;2.50;;
77449;SDS011;66536;53.150;18.172;2023-07-13T13:25:11;6.00;;;2.80;;
77449;SDS011;66536;53.150;18.172;2023-07-13T13:27:41;10.00;;;2.90;;
77449;SDS011;66536;53.150;18.172;2023-07-13T13:30:10;4.10;;;2.80;;
77449;SDS011;66536;53.150;18.172;2023-07-13T13:32:42;6.60;;;3.10;;
77449;SDS011;66536;53.150;18.172;2023-07-13T13:35:14;9.80;;;3.50;;
77449;SDS011;66536;53.150;18.172;2023-07-13T13:37:44;7.40;;;3.20;;
77449;SDS011;66536;53.150;18.172;2023-07-13T13:40:13;5.70;;;2.50;;
77449;SDS011;66536;53.150;18.172;2023-07-13T13:42:44;7.60;;;2.80;;
77449;SDS011;66536;53.150;18.172;2023-07-13T13:45:11;6.90;;;2.40;;
77449;SDS011;66536;53.150;18.172;2023-07-13T13:47:39;6.60;;;2.50;;
77449;SDS011;66536;53.150;18.172;2023-07-13T13:50:15;4.80;;;2.60;;
77449;SDS011;66536;53.150;18.172;2023-07-13T13:52:46;2.90;;;2.60;;
77449;SDS011;66536;53.150;18.172;2023-07-13T13:55:15;3.90;;;2.60;;
77449;SDS011;66536;53.150;18.172;2023-07-13T13:57:45;7.40;;;2.60;;
77449;SDS011;66536;53.150;18.172;2023-07-13T14:00:12;3.80;;;2.90;;
77449;SDS011;66536;53.150;18.172;2023-07-13T14:02:42;7.60;;;2.70;;
77449;SDS011;66536;53.150;18.172;2023-07-13T14:05:18;8.80;;;2.70;;
77449;SDS011;66536;53.150;18.172;2023-07-13T14:07:49;4.90;;;2.20;;
77449;SDS011;66536;53.150;18.172;2023-07-13T14:10:17;2.50;;;2.30;;
77449;SDS011;66536;53.150;18.172;2023-07-13T14:12:47;6.90;;;2.70;;
77449;SDS011;66536;53.150;18.172;2023-07-13T14:15:19;5.40;;;2.40;;
77449;SDS011;66536;53.150;18.172;2023-07-13T14:17:50;5.60;;;2.60;;
77449;SDS011;66536;53.150;18.172;2023-07-13T14:20:18;7.10;;;2.50;;
77449;SDS011;66536;53.150;18.172;2023-07-13T14:22:46;4.70;;;2.90;;
77449;SDS011;66536;53.150;18.172;2023-07-13T14:25:15;4.40;;;3.10;;
77449;SDS011;66536;53.150;18.172;2023-07-13T14:27:43;3.50;;;3.10;;
77449;SDS011;66536;53.150;18.172;2023-07-13T14:30:12;4.50;;;2.70;;
77449;SDS011;66536;53.150;18.172;2023-07-13T14:32:41;5.60;;;3.60;;
77449;SDS011;66536;53.150;18.172;2023-07-13T14:35:11;6.40;;;3.40;;
77449;SDS011;66536;53.150;18.172;2023-07-13T14:37:39;4.10;;;3.30;;
77449;SDS011;66536;53.150;18.172;2023-07-13T14:40:12;6.40;;;3.20;;
77449;SDS011;66536;53.150;18.172;2023-07-13T14:42:41;8.30;;;3.90;;
77449;SDS011;66536;53.150;18.172;2023-07-13T14:45:15;3.80;;;2.90;;
77449;SDS011;66536;53.150;18.172;2023-07-13T14:47:43;5.50;;;3.40;;
77449;SDS011;66536;53.150;18.172;2023-07-13T14:50:13;6.00;;;4.20;;
77449;SDS011;66536;53.150;18.172;2023-07-13T14:52:45;4.20;;;3.50;;
77449;SDS011;66536;53.150;18.172;2023-07-13T14:55:15;4.30;;;2.70;;
77449;SDS011;66536;53.150;18.172;2023-07-13T14:57:43;4.90;;;3.80;;
77449;SDS011;66536;53.150;18.172;2023-07-13T15:00:14;4.70;;;3.90;;
77449;SDS011;66536;53.150;18.172;2023-07-13T15:02:43;5.70;;;4.30;;
77449;SDS011;66536;53.150;18.172;2023-07-13T15:05:14;4.50;;;3.60;;
77449;SDS011;66536;53.150;18.172;2023-07-13T15:07:44;5.40;;;4.50;;
77449;SDS011;66536;53.150;18.172;2023-07-13T15:10:15;4.90;;;4.50;;
77449;SDS011;66536;53.150;18.172;2023-07-13T15:12:47;5.10;;;4.70;;
77449;SDS011;66536;53.150;18.172;2023-07-13T15:15:13;5.70;;;5.30;;
77449;SDS011;66536;53.150;18.172;2023-07-13T15:17:41;5.10;;;4.50;;
77449;SDS011;66536;53.150;18.172;2023-07-13T15:22:52;5.70;;;5.20;;